sensor_id;sensor_type;location;lat;lon;timestamp;temperature;humidity
19330;DHT22;9799;48.214;16.388;2022-07-29T00:03:03;23.80;98.50
19330;DHT22;9799;48.214;16.388;2022-07-29T00:06:25;23.80;98.70
19330;DHT22;9799;48.214;16.388;2022-07-29T00:09:47;23.70;98.80
19330;DHT22;9799;48.214;16.388;2022-07-29T00:13:08;23.70;99.50
19330;DHT22;9799;48.214;16.388;2022-07-29T00:16:30;23.70;99.10
19330;DHT22;9799;48.214;16.388;2022-07-29T00:19:51;23.70;99.20
19330;DHT22;9799;48.214;16.388;2022-07-29T00:23:12;23.60;99.60
19330;DHT22;9799;48.214;16.388;2022-07-29T00:26:34;23.70;99.70
19330;DHT22;9799;48.214;16.388;2022-07-29T00:29:56;23.60;99.90
19330;DHT22;9799;48.214;16.388;2022-07-29T00:33:17;23.60;99.90
19330;DHT22;9799;48.214;16.388;2022-07-29T00:36:38;23.60;99.90
19330;DHT22;9799;48.214;16.388;2022-07-29T00:39:59;23.50;99.90
19330;DHT22;9799;48.214;16.388;2022-07-29T00:43:22;23.40;99.90
19330;DHT22;9799;48.214;16.388;2022-07-29T00:46:43;23.40;99.90
19330;DHT22;9799;48.214;16.388;2022-07-29T00:50:06;23.40;99.90
19330;DHT22;9799;48.214;16.388;2022-07-29T00:53:27;23.40;99.90
19330;DHT22;9799;48.214;16.388;2022-07-29T00:56:50;23.30;99.90
19330;DHT22;9799;48.214;16.388;2022-07-29T01:00:15;23.30;99.90
19330;DHT22;9799;48.214;16.388;2022-07-29T01:03:37;23.30;99.90
19330;DHT22;9799;48.214;16.388;2022-07-29T01:06:58;23.20;99.90
19330;DHT22;9799;48.214;16.388;2022-07-29T01:10:22;23.10;99.90
19330;DHT22;9799;48.214;16.388;2022-07-29T01:13:46;23.20;99.90
19330;DHT22;9799;48.214;16.388;2022-07-29T01:17:12;23.10;99.90
19330;DHT22;9799;48.214;16.388;2022-07-29T01:20:51;23.20;99.90
19330;DHT22;9799;48.214;16.388;2022-07-29T01:24:42;23.20;99.90
19330;DHT22;9799;48.214;16.388;2022-07-29T01:28:43;23.20;99.90
19330;DHT22;9799;48.214;16.388;2022-07-29T01:32:11;23.10;99.90
19330;DHT22;9799;48.214;16.388;2022-07-29T01:35:35;23.10;99.90
19330;DHT22;9799;48.214;16.388;2022-07-29T01:39:02;23.10;99.90
19330;DHT22;9799;48.214;16.388;2022-07-29T01:42:29;23.10;99.90
19330;DHT22;9799;48.214;16.388;2022-07-29T01:46:00;23.00;99.90
19330;DHT22;9799;48.214;16.388;2022-07-29T01:49:26;22.90;99.90
19330;DHT22;9799;48.214;16.388;2022-07-29T01:52:54;22.80;99.90
19330;DHT22;9799;48.214;16.388;2022-07-29T01:56:16;22.80;99.90
19330;DHT22;9799;48.214;16.388;2022-07-29T01:59:40;22.70;99.90
19330;DHT22;9799;48.214;16.388;2022-07-29T02:03:07;22.70;99.90
19330;DHT22;9799;48.214;16.388;2022-07-29T02:06:31;22.70;99.90
19330;DHT22;9799;48.214;16.388;2022-07-29T02:09:53;22.60;99.90
19330;DHT22;9799;48.214;16.388;2022-07-29T02:13:17;22.50;99.90
19330;DHT22;9799;48.214;16.388;2022-07-29T02:16:41;22.50;99.90
19330;DHT22;9799;48.214;16.388;2022-07-29T02:20:05;22.40;99.90
19330;DHT22;9799;48.214;16.388;2022-07-29T02:23:27;22.40;99.90
19330;DHT22;9799;48.214;16.388;2022-07-29T02:26:50;22.30;99.90
19330;DHT22;9799;48.214;16.388;2022-07-29T02:30:12;22.20;99.90
19330;DHT22;9799;48.214;16.388;2022-07-29T02:33:34;22.40;99.90
19330;DHT22;9799;48.214;16.388;2022-07-29T02:36:57;22.40;99.90
19330;DHT22;9799;48.214;16.388;2022-07-29T02:40:19;22.40;99.90
19330;DHT22;9799;48.214;16.388;2022-07-29T02:43:41;22.50;99.90
19330;DHT22;9799;48.214;16.388;2022-07-29T02:47:12;22.50;99.90
19330;DHT22;9799;48.214;16.388;2022-07-29T02:50:38;22.50;99.90
19330;DHT22;9799;48.214;16.388;2022-07-29T02:54:07;22.50;99.90
19330;DHT22;9799;48.214;16.388;2022-07-29T02:57:34;22.40;99.90
19330;DHT22;9799;48.214;16.388;2022-07-29T03:00:59;22.50;99.90
19330;DHT22;9799;48.214;16.388;2022-07-29T03:04:22;22.40;99.90
19330;DHT22;9799;48.214;16.388;2022-07-29T03:07:51;22.50;99.90
19330;DHT22;9799;48.214;16.388;2022-07-29T03:11:15;22.40;99.90
19330;DHT22;9799;48.214;16.388;2022-07-29T03:14:38;22.40;99.90
19330;DHT22;9799;48.214;16.388;2022-07-29T03:18:00;22.40;99.90
19330;DHT22;9799;48.214;16.388;2022-07-29T03:21:21;22.40;99.90
19330;DHT22;9799;48.214;16.388;2022-07-29T03:24:42;22.40;99.90
19330;DHT22;9799;48.214;16.388;2022-07-29T03:28:05;22.40;99.90
19330;DHT22;9799;48.214;16.388;2022-07-29T03:31:26;22.30;99.90
19330;DHT22;9799;48.214;16.388;2022-07-29T03:34:47;22.30;99.90
19330;DHT22;9799;48.214;16.388;2022-07-29T03:38:08;22.20;99.90
19330;DHT22;9799;48.214;16.388;2022-07-29T03:41:30;22.20;99.90
19330;DHT22;9799;48.214;16.388;2022-07-29T03:44:54;22.10;99.90
19330;DHT22;9799;48.214;16.388;2022-07-29T03:48:19;22.10;99.90
19330;DHT22;9799;48.214;16.388;2022-07-29T03:51:40;22.20;99.90
19330;DHT22;9799;48.214;16.388;2022-07-29T03:55:02;22.30;99.90
19330;DHT22;9799;48.214;16.388;2022-07-29T03:58:25;22.20;99.90
19330;DHT22;9799;48.214;16.388;2022-07-29T04:01:49;22.20;99.90
19330;DHT22;9799;48.214;16.388;2022-07-29T04:05:12;22.10;99.90
19330;DHT22;9799;48.214;16.388;2022-07-29T04:08:34;22.10;99.90
19330;DHT22;9799;48.214;16.388;2022-07-29T04:11:55;22.10;99.90
19330;DHT22;9799;48.214;16.388;2022-07-29T04:15:16;22.10;99.90
19330;DHT22;9799;48.214;16.388;2022-07-29T04:18:39;22.10;99.90
19330;DHT22;9799;48.214;16.388;2022-07-29T04:22:01;22.10;99.90
19330;DHT22;9799;48.214;16.388;2022-07-29T04:25:22;22.20;99.90
19330;DHT22;9799;48.214;16.388;2022-07-29T04:28:44;22.20;99.90
19330;DHT22;9799;48.214;16.388;2022-07-29T04:32:06;22.20;99.90
19330;DHT22;9799;48.214;16.388;2022-07-29T04:35:29;22.30;99.90
19330;DHT22;9799;48.214;16.388;2022-07-29T04:38:50;22.20;99.90
19330;DHT22;9799;48.214;16.388;2022-07-29T04:42:11;22.20;99.90
19330;DHT22;9799;48.214;16.388;2022-07-29T04:45:32;22.20;99.90
19330;DHT22;9799;48.214;16.388;2022-07-29T04:48:53;22.40;99.90
19330;DHT22;9799;48.214;16.388;2022-07-29T04:52:16;22.40;99.90
19330;DHT22;9799;48.214;16.388;2022-07-29T04:55:37;22.40;99.90
19330;DHT22;9799;48.214;16.388;2022-07-29T04:58:58;22.40;99.90
19330;DHT22;9799;48.214;16.388;2022-07-29T05:02:19;22.40;99.90
19330;DHT22;9799;48.214;16.388;2022-07-29T05:05:41;22.40;99.90
19330;DHT22;9799;48.214;16.388;2022-07-29T05:09:04;22.40;99.90
19330;DHT22;9799;48.214;16.388;2022-07-29T05:12:25;22.60;99.90
19330;DHT22;9799;48.214;16.388;2022-07-29T05:15:47;22.70;99.90
19330;DHT22;9799;48.214;16.388;2022-07-29T05:19:08;22.70;99.90
19330;DHT22;9799;48.214;16.388;2022-07-29T05:22:29;22.70;99.90
19330;DHT22;9799;48.214;16.388;2022-07-29T05:25:52;22.70;99.90
19330;DHT22;9799;48.214;16.388;2022-07-29T05:29:13;22.80;99.90
19330;DHT22;9799;48.214;16.388;2022-07-29T05:32:34;22.70;99.90
19330;DHT22;9799;48.214;16.388;2022-07-29T05:35:55;22.70;99.90
19330;DHT22;9799;48.214;16.388;2022-07-29T05:39:17;22.80;99.90
19330;DHT22;9799;48.214;16.388;2022-07-29T05:42:39;22.90;99.90
19330;DHT22;9799;48.214;16.388;2022-07-29T05:46:00;23.00;99.90
19330;DHT22;9799;48.214;16.388;2022-07-29T05:49:22;23.10;99.90
19330;DHT22;9799;48.214;16.388;2022-07-29T05:52:43;23.20;99.90
19330;DHT22;9799;48.214;16.388;2022-07-29T05:56:04;23.40;99.90
19330;DHT22;9799;48.214;16.388;2022-07-29T05:59:27;23.60;99.90
19330;DHT22;9799;48.214;16.388;2022-07-29T06:02:48;23.70;99.90
19330;DHT22;9799;48.214;16.388;2022-07-29T06:06:09;23.90;99.90
19330;DHT22;9799;48.214;16.388;2022-07-29T06:09:31;24.30;99.90
19330;DHT22;9799;48.214;16.388;2022-07-29T06:12:52;24.50;99.90
19330;DHT22;9799;48.214;16.388;2022-07-29T06:16:15;24.70;99.90
19330;DHT22;9799;48.214;16.388;2022-07-29T06:19:36;24.90;99.90
19330;DHT22;9799;48.214;16.388;2022-07-29T06:22:57;24.70;99.90
19330;DHT22;9799;48.214;16.388;2022-07-29T06:26:18;24.60;99.90
19330;DHT22;9799;48.214;16.388;2022-07-29T06:29:39;24.60;99.90
19330;DHT22;9799;48.214;16.388;2022-07-29T06:33:02;24.70;99.90
19330;DHT22;9799;48.214;16.388;2022-07-29T06:36:24;24.80;99.90
19330;DHT22;9799;48.214;16.388;2022-07-29T06:39:45;24.60;99.90
19330;DHT22;9799;48.214;16.388;2022-07-29T06:43:06;24.60;99.90
19330;DHT22;9799;48.214;16.388;2022-07-29T06:46:27;24.70;99.90
19330;DHT22;9799;48.214;16.388;2022-07-29T06:49:50;24.80;99.90
19330;DHT22;9799;48.214;16.388;2022-07-29T06:53:11;24.80;99.90
19330;DHT22;9799;48.214;16.388;2022-07-29T06:56:33;24.80;99.90
19330;DHT22;9799;48.214;16.388;2022-07-29T06:59:56;24.80;99.90
19330;DHT22;9799;48.214;16.388;2022-07-29T07:03:18;24.70;99.90
19330;DHT22;9799;48.214;16.388;2022-07-29T07:06:41;24.70;99.90
19330;DHT22;9799;48.214;16.388;2022-07-29T07:10:02;24.70;99.90
19330;DHT22;9799;48.214;16.388;2022-07-29T07:13:23;24.70;99.90
19330;DHT22;9799;48.214;16.388;2022-07-29T07:16:45;24.70;99.90
19330;DHT22;9799;48.214;16.388;2022-07-29T07:20:07;24.60;99.90
19330;DHT22;9799;48.214;16.388;2022-07-29T07:23:30;24.60;99.90
19330;DHT22;9799;48.214;16.388;2022-07-29T07:26:51;24.60;99.90
19330;DHT22;9799;48.214;16.388;2022-07-29T07:30:12;24.60;99.90
19330;DHT22;9799;48.214;16.388;2022-07-29T07:33:33;24.60;99.90
19330;DHT22;9799;48.214;16.388;2022-07-29T07:36:55;24.70;99.90
19330;DHT22;9799;48.214;16.388;2022-07-29T07:40:17;24.80;99.90
19330;DHT22;9799;48.214;16.388;2022-07-29T07:43:38;24.80;99.90
19330;DHT22;9799;48.214;16.388;2022-07-29T07:46:59;24.80;99.90
19330;DHT22;9799;48.214;16.388;2022-07-29T07:50:21;24.80;99.90
19330;DHT22;9799;48.214;16.388;2022-07-29T07:53:42;24.90;99.90
19330;DHT22;9799;48.214;16.388;2022-07-29T07:57:05;25.00;99.90
19330;DHT22;9799;48.214;16.388;2022-07-29T08:00:27;25.20;99.90
19330;DHT22;9799;48.214;16.388;2022-07-29T08:03:48;25.30;99.90
19330;DHT22;9799;48.214;16.388;2022-07-29T08:07:09;25.30;99.90
19330;DHT22;9799;48.214;16.388;2022-07-29T08:10:30;25.20;99.90
19330;DHT22;9799;48.214;16.388;2022-07-29T08:14:10;25.40;99.90
19330;DHT22;9799;48.214;16.388;2022-07-29T08:17:32;25.50;99.90
19330;DHT22;9799;48.214;16.388;2022-07-29T08:20:53;25.50;99.90
19330;DHT22;9799;48.214;16.388;2022-07-29T08:24:14;25.60;99.90
19330;DHT22;9799;48.214;16.388;2022-07-29T08:27:52;25.80;99.90
19330;DHT22;9799;48.214;16.388;2022-07-29T08:31:16;25.90;99.90
19330;DHT22;9799;48.214;16.388;2022-07-29T08:34:37;25.90;99.90
19330;DHT22;9799;48.214;16.388;2022-07-29T08:37:58;26.00;99.90
19330;DHT22;9799;48.214;16.388;2022-07-29T08:41:19;26.40;99.90
19330;DHT22;9799;48.214;16.388;2022-07-29T08:44:41;26.50;99.90
19330;DHT22;9799;48.214;16.388;2022-07-29T08:48:04;26.60;99.90
19330;DHT22;9799;48.214;16.388;2022-07-29T08:51:27;26.80;99.90
19330;DHT22;9799;48.214;16.388;2022-07-29T08:54:48;26.80;99.90
19330;DHT22;9799;48.214;16.388;2022-07-29T08:58:11;26.90;99.90
19330;DHT22;9799;48.214;16.388;2022-07-29T09:01:33;27.10;99.90
19330;DHT22;9799;48.214;16.388;2022-07-29T09:05:00;27.10;99.90
19330;DHT22;9799;48.214;16.388;2022-07-29T09:08:23;26.90;99.90
19330;DHT22;9799;48.214;16.388;2022-07-29T09:11:44;26.90;99.90
19330;DHT22;9799;48.214;16.388;2022-07-29T09:15:07;26.90;99.90
19330;DHT22;9799;48.214;16.388;2022-07-29T09:18:36;27.30;99.90
19330;DHT22;9799;48.214;16.388;2022-07-29T09:21:59;27.60;99.90
19330;DHT22;9799;48.214;16.388;2022-07-29T09:25:36;27.50;99.90
19330;DHT22;9799;48.214;16.388;2022-07-29T09:28:58;27.40;99.90
19330;DHT22;9799;48.214;16.388;2022-07-29T09:32:20;27.40;99.90
19330;DHT22;9799;48.214;16.388;2022-07-29T09:35:41;27.60;99.90
19330;DHT22;9799;48.214;16.388;2022-07-29T09:39:03;27.50;99.90
19330;DHT22;9799;48.214;16.388;2022-07-29T09:42:28;27.70;99.90
19330;DHT22;9799;48.214;16.388;2022-07-29T09:45:50;27.80;99.90
19330;DHT22;9799;48.214;16.388;2022-07-29T09:49:12;27.70;99.90
19330;DHT22;9799;48.214;16.388;2022-07-29T09:52:45;27.50;99.90
19330;DHT22;9799;48.214;16.388;2022-07-29T09:56:08;27.30;99.90
19330;DHT22;9799;48.214;16.388;2022-07-29T09:59:30;27.40;99.90
19330;DHT22;9799;48.214;16.388;2022-07-29T10:02:51;27.50;99.90
19330;DHT22;9799;48.214;16.388;2022-07-29T10:06:20;27.70;99.90
19330;DHT22;9799;48.214;16.388;2022-07-29T10:09:50;27.40;99.90
19330;DHT22;9799;48.214;16.388;2022-07-29T10:13:14;27.30;99.90
19330;DHT22;9799;48.214;16.388;2022-07-29T10:16:36;27.40;99.90
19330;DHT22;9799;48.214;16.388;2022-07-29T10:19:57;27.60;99.90
19330;DHT22;9799;48.214;16.388;2022-07-29T10:23:19;27.40;99.90
19330;DHT22;9799;48.214;16.388;2022-07-29T10:26:40;27.60;99.90
19330;DHT22;9799;48.214;16.388;2022-07-29T10:30:04;27.40;99.90
19330;DHT22;9799;48.214;16.388;2022-07-29T10:33:45;27.50;99.90
19330;DHT22;9799;48.214;16.388;2022-07-29T10:37:14;27.60;99.90
19330;DHT22;9799;48.214;16.388;2022-07-29T10:40:45;27.40;99.90
19330;DHT22;9799;48.214;16.388;2022-07-29T10:44:29;27.40;99.90
19330;DHT22;9799;48.214;16.388;2022-07-29T10:48:02;27.70;99.90
19330;DHT22;9799;48.214;16.388;2022-07-29T10:51:24;28.00;99.90
19330;DHT22;9799;48.214;16.388;2022-07-29T10:54:48;27.80;99.90
19330;DHT22;9799;48.214;16.388;2022-07-29T10:58:11;27.50;99.90
19330;DHT22;9799;48.214;16.388;2022-07-29T11:01:33;27.40;99.90
19330;DHT22;9799;48.214;16.388;2022-07-29T11:05:03;27.40;99.90
19330;DHT22;9799;48.214;16.388;2022-07-29T11:08:26;27.40;99.90
19330;DHT22;9799;48.214;16.388;2022-07-29T11:11:47;27.60;99.90
19330;DHT22;9799;48.214;16.388;2022-07-29T11:15:09;27.60;99.90
19330;DHT22;9799;48.214;16.388;2022-07-29T11:18:36;27.50;99.90
19330;DHT22;9799;48.214;16.388;2022-07-29T11:22:33;27.50;99.90
19330;DHT22;9799;48.214;16.388;2022-07-29T11:26:13;27.60;99.90
19330;DHT22;9799;48.214;16.388;2022-07-29T11:29:36;28.00;99.90
19330;DHT22;9799;48.214;16.388;2022-07-29T11:32:59;28.20;99.90
19330;DHT22;9799;48.214;16.388;2022-07-29T11:36:20;28.00;99.90
19330;DHT22;9799;48.214;16.388;2022-07-29T11:39:44;28.00;99.90
19330;DHT22;9799;48.214;16.388;2022-07-29T11:43:06;27.60;99.90
19330;DHT22;9799;48.214;16.388;2022-07-29T11:46:44;27.80;99.90
19330;DHT22;9799;48.214;16.388;2022-07-29T11:50:08;27.90;99.90
19330;DHT22;9799;48.214;16.388;2022-07-29T11:53:29;28.30;99.90
19330;DHT22;9799;48.214;16.388;2022-07-29T11:56:52;28.50;99.40
19330;DHT22;9799;48.214;16.388;2022-07-29T12:00:22;28.50;99.40
19330;DHT22;9799;48.214;16.388;2022-07-29T12:03:44;28.70;99.60
19330;DHT22;9799;48.214;16.388;2022-07-29T12:07:05;28.90;99.80
19330;DHT22;9799;48.214;16.388;2022-07-29T12:10:30;28.70;99.90
19330;DHT22;9799;48.214;16.388;2022-07-29T12:13:53;29.10;98.80
19330;DHT22;9799;48.214;16.388;2022-07-29T12:17:25;29.20;98.50
19330;DHT22;9799;48.214;16.388;2022-07-29T12:20:47;29.30;98.30
19330;DHT22;9799;48.214;16.388;2022-07-29T12:24:08;29.20;98.30
19330;DHT22;9799;48.214;16.388;2022-07-29T12:27:30;29.30;98.10
19330;DHT22;9799;48.214;16.388;2022-07-29T12:30:52;29.50;97.90
19330;DHT22;9799;48.214;16.388;2022-07-29T12:34:15;29.30;98.50
19330;DHT22;9799;48.214;16.388;2022-07-29T12:37:38;29.10;98.60
19330;DHT22;9799;48.214;16.388;2022-07-29T12:40:59;28.80;99.20
19330;DHT22;9799;48.214;16.388;2022-07-29T12:44:20;28.70;99.20
19330;DHT22;9799;48.214;16.388;2022-07-29T12:47:53;28.50;99.70
19330;DHT22;9799;48.214;16.388;2022-07-29T12:51:14;28.00;99.80
19330;DHT22;9799;48.214;16.388;2022-07-29T12:54:46;27.80;99.90
19330;DHT22;9799;48.214;16.388;2022-07-29T12:58:09;27.60;99.90
19330;DHT22;9799;48.214;16.388;2022-07-29T13:01:36;27.40;99.90
19330;DHT22;9799;48.214;16.388;2022-07-29T13:04:59;27.30;99.90
19330;DHT22;9799;48.214;16.388;2022-07-29T13:08:21;27.30;99.90
19330;DHT22;9799;48.214;16.388;2022-07-29T13:11:44;27.50;99.90
19330;DHT22;9799;48.214;16.388;2022-07-29T13:15:13;27.60;99.90
19330;DHT22;9799;48.214;16.388;2022-07-29T13:18:35;27.30;99.90
19330;DHT22;9799;48.214;16.388;2022-07-29T13:21:58;27.40;99.90
19330;DHT22;9799;48.214;16.388;2022-07-29T13:25:24;27.30;99.90
19330;DHT22;9799;48.214;16.388;2022-07-29T13:28:45;27.10;99.90
19330;DHT22;9799;48.214;16.388;2022-07-29T13:32:06;27.00;99.90
19330;DHT22;9799;48.214;16.388;2022-07-29T13:35:28;27.10;99.90
19330;DHT22;9799;48.214;16.388;2022-07-29T13:38:51;27.10;99.90
19330;DHT22;9799;48.214;16.388;2022-07-29T13:42:12;27.00;99.90
19330;DHT22;9799;48.214;16.388;2022-07-29T13:45:34;26.90;99.90
19330;DHT22;9799;48.214;16.388;2022-07-29T13:48:55;26.90;99.90
19330;DHT22;9799;48.214;16.388;2022-07-29T13:52:17;27.00;99.90
19330;DHT22;9799;48.214;16.388;2022-07-29T13:55:39;26.90;99.90
19330;DHT22;9799;48.214;16.388;2022-07-29T13:59:00;26.70;99.90
19330;DHT22;9799;48.214;16.388;2022-07-29T14:02:21;26.40;99.90
19330;DHT22;9799;48.214;16.388;2022-07-29T14:05:43;26.30;99.90
19330;DHT22;9799;48.214;16.388;2022-07-29T14:09:04;26.00;99.90
19330;DHT22;9799;48.214;16.388;2022-07-29T14:12:29;25.90;99.90
19330;DHT22;9799;48.214;16.388;2022-07-29T14:15:50;25.80;99.90
19330;DHT22;9799;48.214;16.388;2022-07-29T14:19:12;25.30;99.90
19330;DHT22;9799;48.214;16.388;2022-07-29T14:22:33;25.00;99.90
19330;DHT22;9799;48.214;16.388;2022-07-29T14:25:54;24.80;99.90
19330;DHT22;9799;48.214;16.388;2022-07-29T14:29:16;24.60;99.90
19330;DHT22;9799;48.214;16.388;2022-07-29T14:32:38;24.40;99.90
19330;DHT22;9799;48.214;16.388;2022-07-29T14:35:59;24.30;99.90
19330;DHT22;9799;48.214;16.388;2022-07-29T14:39:20;24.30;99.90
19330;DHT22;9799;48.214;16.388;2022-07-29T14:42:41;24.20;99.90
19330;DHT22;9799;48.214;16.388;2022-07-29T14:46:04;24.20;99.90
19330;DHT22;9799;48.214;16.388;2022-07-29T14:49:27;24.20;99.90
19330;DHT22;9799;48.214;16.388;2022-07-29T14:52:48;24.10;99.90
19330;DHT22;9799;48.214;16.388;2022-07-29T14:56:09;24.00;99.90
19330;DHT22;9799;48.214;16.388;2022-07-29T14:59:30;24.00;99.90
19330;DHT22;9799;48.214;16.388;2022-07-29T15:02:53;24.00;99.90
19330;DHT22;9799;48.214;16.388;2022-07-29T15:06:14;23.90;99.90
19330;DHT22;9799;48.214;16.388;2022-07-29T15:09:35;23.90;99.90
19330;DHT22;9799;48.214;16.388;2022-07-29T15:12:57;24.00;99.90
19330;DHT22;9799;48.214;16.388;2022-07-29T15:16:18;24.00;99.90
19330;DHT22;9799;48.214;16.388;2022-07-29T15:19:40;23.90;99.90
19330;DHT22;9799;48.214;16.388;2022-07-29T15:23:01;24.00;99.90
19330;DHT22;9799;48.214;16.388;2022-07-29T15:26:23;24.00;99.90
19330;DHT22;9799;48.214;16.388;2022-07-29T15:29:44;24.00;99.90
19330;DHT22;9799;48.214;16.388;2022-07-29T15:33:05;23.90;99.90
19330;DHT22;9799;48.214;16.388;2022-07-29T15:36:28;24.00;99.90
19330;DHT22;9799;48.214;16.388;2022-07-29T15:39:49;24.10;99.90
19330;DHT22;9799;48.214;16.388;2022-07-29T15:43:10;23.80;99.90
19330;DHT22;9799;48.214;16.388;2022-07-29T15:46:32;23.80;99.90
19330;DHT22;9799;48.214;16.388;2022-07-29T15:50:10;23.80;99.90
19330;DHT22;9799;48.214;16.388;2022-07-29T15:53:36;23.80;99.90
19330;DHT22;9799;48.214;16.388;2022-07-29T15:56:57;23.90;99.90
19330;DHT22;9799;48.214;16.388;2022-07-29T16:00:18;24.00;99.90
19330;DHT22;9799;48.214;16.388;2022-07-29T16:03:41;24.00;99.90
19330;DHT22;9799;48.214;16.388;2022-07-29T16:07:02;24.10;99.90
19330;DHT22;9799;48.214;16.388;2022-07-29T16:10:25;24.20;99.90
19330;DHT22;9799;48.214;16.388;2022-07-29T16:13:46;24.20;99.90
19330;DHT22;9799;48.214;16.388;2022-07-29T16:17:07;24.20;99.90
19330;DHT22;9799;48.214;16.388;2022-07-29T16:20:28;24.20;99.90
19330;DHT22;9799;48.214;16.388;2022-07-29T16:23:50;24.20;99.90
19330;DHT22;9799;48.214;16.388;2022-07-29T16:27:12;24.20;99.90
19330;DHT22;9799;48.214;16.388;2022-07-29T16:30:34;24.20;99.90
19330;DHT22;9799;48.214;16.388;2022-07-29T16:33:55;24.30;99.90
19330;DHT22;9799;48.214;16.388;2022-07-29T16:37:16;24.50;99.90
19330;DHT22;9799;48.214;16.388;2022-07-29T16:40:37;24.50;99.90
19330;DHT22;9799;48.214;16.388;2022-07-29T16:44:00;24.50;99.90
19330;DHT22;9799;48.214;16.388;2022-07-29T16:47:22;24.50;99.90
19330;DHT22;9799;48.214;16.388;2022-07-29T16:50:43;24.30;99.90
19330;DHT22;9799;48.214;16.388;2022-07-29T16:54:04;24.20;99.90
19330;DHT22;9799;48.214;16.388;2022-07-29T16:57:27;24.30;99.90
19330;DHT22;9799;48.214;16.388;2022-07-29T17:00:50;24.30;99.90
19330;DHT22;9799;48.214;16.388;2022-07-29T17:04:11;24.30;99.90
19330;DHT22;9799;48.214;16.388;2022-07-29T17:07:33;24.40;99.90
19330;DHT22;9799;48.214;16.388;2022-07-29T17:10:55;24.40;99.90
19330;DHT22;9799;48.214;16.388;2022-07-29T17:14:16;24.40;99.90
19330;DHT22;9799;48.214;16.388;2022-07-29T17:17:39;24.30;99.90
19330;DHT22;9799;48.214;16.388;2022-07-29T17:21:00;24.30;99.90
19330;DHT22;9799;48.214;16.388;2022-07-29T17:24:21;24.30;99.90
19330;DHT22;9799;48.214;16.388;2022-07-29T17:27:45;24.20;99.90
19330;DHT22;9799;48.214;16.388;2022-07-29T17:31:06;24.20;99.90
19330;DHT22;9799;48.214;16.388;2022-07-29T17:34:28;24.10;99.90
19330;DHT22;9799;48.214;16.388;2022-07-29T17:37:50;24.20;99.90
19330;DHT22;9799;48.214;16.388;2022-07-29T17:41:11;24.20;99.90
19330;DHT22;9799;48.214;16.388;2022-07-29T17:44:33;24.30;99.90
19330;DHT22;9799;48.214;16.388;2022-07-29T17:47:54;24.20;99.90
19330;DHT22;9799;48.214;16.388;2022-07-29T17:51:17;24.20;99.90
19330;DHT22;9799;48.214;16.388;2022-07-29T17:54:38;24.20;99.90
19330;DHT22;9799;48.214;16.388;2022-07-29T17:57:59;24.20;99.90
19330;DHT22;9799;48.214;16.388;2022-07-29T18:01:20;24.20;99.90
19330;DHT22;9799;48.214;16.388;2022-07-29T18:04:41;24.10;99.90
19330;DHT22;9799;48.214;16.388;2022-07-29T18:08:04;24.10;99.90
19330;DHT22;9799;48.214;16.388;2022-07-29T18:11:26;24.10;99.90
19330;DHT22;9799;48.214;16.388;2022-07-29T18:14:48;24.00;99.90
19330;DHT22;9799;48.214;16.388;2022-07-29T18:18:10;24.00;99.90
19330;DHT22;9799;48.214;16.388;2022-07-29T18:21:31;24.00;99.90
19330;DHT22;9799;48.214;16.388;2022-07-29T18:24:55;24.00;99.90
19330;DHT22;9799;48.214;16.388;2022-07-29T18:28:16;24.00;99.90
19330;DHT22;9799;48.214;16.388;2022-07-29T18:31:38;23.90;99.90
19330;DHT22;9799;48.214;16.388;2022-07-29T18:34:59;23.90;99.90
19330;DHT22;9799;48.214;16.388;2022-07-29T18:38:24;24.00;99.90
19330;DHT22;9799;48.214;16.388;2022-07-29T18:41:46;24.00;99.90
19330;DHT22;9799;48.214;16.388;2022-07-29T18:45:08;24.00;99.90
19330;DHT22;9799;48.214;16.388;2022-07-29T18:48:30;23.90;99.90
19330;DHT22;9799;48.214;16.388;2022-07-29T18:51:52;23.90;99.90
19330;DHT22;9799;48.214;16.388;2022-07-29T18:55:13;23.80;99.90
19330;DHT22;9799;48.214;16.388;2022-07-29T18:58:35;23.90;99.90
19330;DHT22;9799;48.214;16.388;2022-07-29T19:01:57;23.90;99.90
19330;DHT22;9799;48.214;16.388;2022-07-29T19:05:19;23.90;99.90
19330;DHT22;9799;48.214;16.388;2022-07-29T19:08:40;23.90;99.90
19330;DHT22;9799;48.214;16.388;2022-07-29T19:12:02;24.00;99.90
19330;DHT22;9799;48.214;16.388;2022-07-29T19:15:24;24.00;99.90
19330;DHT22;9799;48.214;16.388;2022-07-29T19:18:46;23.90;99.90
19330;DHT22;9799;48.214;16.388;2022-07-29T19:22:07;23.90;99.90
19330;DHT22;9799;48.214;16.388;2022-07-29T19:25:28;24.00;99.90
19330;DHT22;9799;48.214;16.388;2022-07-29T19:28:49;24.00;99.90
19330;DHT22;9799;48.214;16.388;2022-07-29T19:32:12;24.00;99.90
19330;DHT22;9799;48.214;16.388;2022-07-29T19:35:33;24.00;99.90
19330;DHT22;9799;48.214;16.388;2022-07-29T19:38:54;24.00;99.90
19330;DHT22;9799;48.214;16.388;2022-07-29T19:42:15;23.90;99.90
19330;DHT22;9799;48.214;16.388;2022-07-29T19:45:37;23.80;99.90
19330;DHT22;9799;48.214;16.388;2022-07-29T19:48:59;23.80;99.90
19330;DHT22;9799;48.214;16.388;2022-07-29T19:52:20;23.80;99.90
19330;DHT22;9799;48.214;16.388;2022-07-29T19:55:42;23.80;99.90
19330;DHT22;9799;48.214;16.388;2022-07-29T19:59:03;23.70;99.90
19330;DHT22;9799;48.214;16.388;2022-07-29T20:02:24;23.70;99.90
19330;DHT22;9799;48.214;16.388;2022-07-29T20:05:47;23.70;99.90
19330;DHT22;9799;48.214;16.388;2022-07-29T20:09:09;23.70;99.90
19330;DHT22;9799;48.214;16.388;2022-07-29T20:12:32;23.70;99.90
19330;DHT22;9799;48.214;16.388;2022-07-29T20:15:54;23.80;99.90
19330;DHT22;9799;48.214;16.388;2022-07-29T20:19:16;23.80;99.90
19330;DHT22;9799;48.214;16.388;2022-07-29T20:22:38;23.80;99.90
19330;DHT22;9799;48.214;16.388;2022-07-29T20:26:00;23.80;99.90
19330;DHT22;9799;48.214;16.388;2022-07-29T20:29:21;23.60;99.90
19330;DHT22;9799;48.214;16.388;2022-07-29T20:32:42;23.50;99.90
19330;DHT22;9799;48.214;16.388;2022-07-29T20:36:04;23.60;99.90
19330;DHT22;9799;48.214;16.388;2022-07-29T20:39:27;23.60;99.90
19330;DHT22;9799;48.214;16.388;2022-07-29T20:42:48;23.60;99.90
19330;DHT22;9799;48.214;16.388;2022-07-29T20:46:09;23.70;99.90
19330;DHT22;9799;48.214;16.388;2022-07-29T20:49:30;23.70;99.90
19330;DHT22;9799;48.214;16.388;2022-07-29T20:52:52;23.60;99.90
19330;DHT22;9799;48.214;16.388;2022-07-29T20:56:14;23.60;99.90
19330;DHT22;9799;48.214;16.388;2022-07-29T20:59:36;23.50;99.90
19330;DHT22;9799;48.214;16.388;2022-07-29T21:02:57;23.40;99.90
19330;DHT22;9799;48.214;16.388;2022-07-29T21:06:18;23.40;99.90
19330;DHT22;9799;48.214;16.388;2022-07-29T21:09:39;23.30;99.90
19330;DHT22;9799;48.214;16.388;2022-07-29T21:13:02;23.40;99.90
19330;DHT22;9799;48.214;16.388;2022-07-29T21:16:23;23.40;99.90
19330;DHT22;9799;48.214;16.388;2022-07-29T21:19:47;23.30;99.90
19330;DHT22;9799;48.214;16.388;2022-07-29T21:23:11;23.40;99.90